• Join FlightAware (Why Join?)
  • Login
  • US Flag 
11:53AM EDT


 

Airport Tracker/Info


-or-


 

Live Flight TrackerFlight Track Log ✈ N5073J ✈ 28-Aug-2014 ✈ EDWB / BRV - KTYS

Flight Track Log - Related Links

Times and Time Zones

All times are in EDT time to prevent confusion due to time zone crossing. See the N5073J flight status page for this flight to view local times or setup timezone preferences in your user account.

Time Position Orientation Groundspeed Altitude Reporting Facility
EDT Latitude Longitude Course Direction KTS MPH feet Rate Location/Type
01:12PM 38.1500 -77.7667 295° West 161 185 5,500  Level Potomac TRACON
01:13PM 38.1333 -77.8333 252° West 159 183 6,200 600 Climbing Potomac TRACON
01:14PM 38.1167 -77.8833 247° West 162 186 6,800 540 Climbing Potomac TRACON
01:15PM 38.1000 -77.9333 247° West 165 190 7,300 420 Climbing Potomac TRACON
01:16PM 38.0833 -77.9833 247° West 165 190 7,700 360 Climbing Potomac TRACON
01:17PM 38.0667 -78.0333 247° West 161 185 8,100 360 Climbing Potomac TRACON
01:18PM 38.0500 -78.0833 247° West 164 189 8,400 180 Climbing Potomac TRACON
01:19PM 53.6853 7.9199 295° West  Level Estimated
01:19PM 38.0333 -78.1333 247° West 168 193 8,500  Level Potomac TRACON
01:20PM 38.0000 -78.1833 230° Southwest 172 198 8,500  Level Potomac TRACON
01:21PM 37.9833 -78.2500 252° West 175 201 8,600  Climbing Potomac TRACON
01:22PM 37.9667 -78.3000 247° West 177 204 8,500 -60 Descending Potomac TRACON
01:23PM 37.9500 -78.3500 247° West 178 205 8,500  Level Potomac TRACON
01:24PM 37.9333 -78.4000 247° West 177 204 8,600  Climbing Potomac TRACON
01:24PM 37.9167 -78.4667 252° West 178 205 8,600 -60 Level Potomac TRACON
01:25PM 37.9000 -78.5167 247° West 178 205 8,500 -60 Descending Potomac TRACON
01:26PM 37.8667 -78.5667 230° Southwest 182 209 8,500  Level Potomac TRACON
01:27PM 37.8500 -78.6333 252° West 179 206 8,500  Level Potomac TRACON
01:28PM 37.8333 -78.6667 238° Southwest 177 204 8,500  Level Potomac TRACON
01:41PM 37.5728 -79.3564 246° West 179 206 8,500  Level Washington Center
01:45PM 37.4833 -79.6111 246° West 184 212 8,500  Level Washington Center
01:49PM 37.4036 -79.8428 246° West 179 206 8,600  Climbing Washington Center
01:53PM 37.3183 -80.0839 246° West 176 203 8,500 -60 Descending Washington Center
01:56PM 37.2519 -80.2717 246° West 187 215 8,500  Level Washington Center
01:57PM 37.2244 -80.3378 242° Southwest 186 214 8,600  Climbing Atlanta Center
01:58PM 37.2115 -80.3897 246° West  Level FlightAware Approximate
01:58PM 37.2075 -80.3958 250° West 200 230 8,500  Level Atlanta Center
01:59PM 37.1883 -80.4567 248° West 200 230 8,500  Level Atlanta Center
02:00PM 37.1669 -80.5122 244° Southwest 195 224 8,600  Climbing Atlanta Center
02:01PM 37.1458 -80.5706 246° West 190 219 8,500 -60 Descending Atlanta Center
02:02PM 37.1244 -80.6289 245° Southwest 190 219 8,500  Level Atlanta Center
02:03PM 37.0989 -80.6844 240° Southwest 190 219 8,500  Level Atlanta Center
02:04PM 37.0756 -80.7453 244° Southwest 190 219 8,600  Climbing Atlanta Center
02:05PM 37.0542 -80.8036 245° Southwest 190 219 8,600  Level Atlanta Center
02:06PM 37.0306 -80.8617 243° Southwest 190 219 8,600  Level Atlanta Center
02:07PM 37.0111 -80.9169 246° West 185 213 8,600  Level Atlanta Center
02:08PM 36.9897 -80.9775 246° West 185 213 8,600  Level Atlanta Center
02:09PM 36.9703 -81.0356 247° West 185 213 8,600 -60 Level Atlanta Center
02:10PM 36.9531 -81.0958 250° West 185 213 8,500 -120 Descending Atlanta Center
02:11PM 36.9294 -81.1539 243° Southwest 185 213 8,400  Descending Atlanta Center
02:12PM 36.9036 -81.2119 241° Southwest 190 219 8,500  Climbing Atlanta Center
02:13PM 36.8778 -81.2675 240° Southwest 190 219 8,500  Level Atlanta Center
02:14PM 36.8561 -81.3228 244° Southwest 190 219 8,500  Level Atlanta Center
02:15PM 36.8303 -81.3806 241° Southwest 190 219 8,500  Level Atlanta Center
02:16PM 36.8086 -81.4383 245° Southwest 190 219 8,500  Level Atlanta Center
02:17PM 36.7847 -81.4961 243° Southwest 190 219 8,500  Level Atlanta Center
02:18PM 36.7631 -81.5564 246° West 190 219 8,500 -60 Level Atlanta Center
02:19PM 36.7392 -81.6142 243° Southwest 190 219 8,400 -60 Descending Atlanta Center
02:20PM 36.7153 -81.6719 243° Southwest 195 224 8,400  Level Atlanta Center
02:21PM 36.6936 -81.7319 246° West 195 224 8,500  Climbing Atlanta Center
02:22PM 36.6694 -81.7897 242° Southwest 195 224 8,400 -60 Descending Atlanta Center
02:23PM 36.6456 -81.8447 242° Southwest 190 219 8,400  Level Atlanta Center
02:24PM 36.6236 -81.9022 245° Southwest 190 219 8,400  Level Atlanta Center
02:25PM 36.5975 -81.9597 241° Southwest 190 219 8,500  Climbing Atlanta Center
02:26PM 36.5756 -82.0172 245° Southwest 190 219 8,500  Level Atlanta Center